Time;durP1;ratioP1;P1;durP2;ratioP2;P2;SDS_P1;SDS_P2;PMS_P1;PMS_P2;Temp;Humidity;BMP_temperature;BMP_pressure;BME280_temperature;BME280_humidity;BME280_pressure;Samples;Min_cycle;Max_cycle;Signal;HPM_P1;HPM_P2
2021/04/29 00:02:34;;;;;;;2.03;1.83;;;21.00;38.70;;;;;;10368570;28;20222;-17
2021/04/29 00:07:56;;;;;;;2.40;1.67;;;20.90;38.80;;;;;;10374679;28;20214;-16
2021/04/29 00:13:18;;;;;;;1.93;1.60;;;20.90;39.00;;;;;;10373332;28;20575;-17
2021/04/29 00:18:40;;;;;;;1.93;1.83;;;20.90;39.00;;;;;;10372712;28;20222;-17
2021/04/29 00:24:02;;;;;;;2.17;1.83;;;20.90;38.90;;;;;;10374372;28;20205;-18
2021/04/29 00:29:24;;;;;;;2.00;1.80;;;20.80;39.10;;;;;;10373488;28;20198;-19
2021/04/29 00:34:46;;;;;;;1.87;1.77;;;20.90;39.10;;;;;;10372541;28;20225;-18
2021/04/29 00:40:10;;;;;;;2.20;1.80;;;20.90;39.00;;;;;;10375067;28;20210;-16
2021/04/29 00:45:32;;;;;;;1.70;1.50;;;21.00;39.20;;;;;;10383488;28;20639;-18
2021/04/29 00:50:54;;;;;;;2.40;1.70;;;20.90;39.20;;;;;;10384131;28;20573;-13
2021/04/29 00:56:16;;;;;;;2.13;1.90;;;20.90;39.20;;;;;;10383950;28;20275;-15
2021/04/29 01:01:39;;;;;;;2.40;1.90;;;20.90;39.20;;;;;;10382559;28;20218;-14
2021/04/29 01:07:05;;;;;;;1.83;1.73;;;21.00;39.20;;;;;;10381375;28;20222;-17
2021/04/29 01:12:34;;;;;;;2.37;1.70;;;21.00;39.10;;;;;;10379922;28;20666;-15
2021/04/29 01:17:56;;;;;;;2.00;1.77;;;21.00;39.20;;;;;;10375437;28;20222;-16
2021/04/29 01:23:27;;;;;;;2.20;2.00;;;20.80;39.40;;;;;;10380395;28;20225;-15
2021/04/29 01:28:51;;;;;;;2.27;1.77;;;20.90;39.50;;;;;;10379755;28;20211;-15
2021/04/29 01:34:15;;;;;;;1.90;1.70;;;20.80;39.60;;;;;;10379335;28;20199;-14
2021/04/29 01:39:38;;;;;;;2.03;1.83;;;21.00;39.50;;;;;;10376852;28;20709;-16
2021/04/29 01:45:00;;;;;;;1.90;1.70;;;20.90;39.40;;;;;;10379526;28;20644;-19
2021/04/29 01:50:22;;;;;;;2.23;1.70;;;20.90;39.50;;;;;;10377674;28;20194;-17
2021/04/29 01:55:45;;;;;;;2.60;1.80;;;20.90;39.50;;;;;;10350066;28;20296;-18
2021/04/29 02:01:08;;;;;;;1.80;1.60;;;20.90;39.50;;;;;;10377554;28;20221;-17
2021/04/29 02:06:29;;;;;;;2.10;1.90;;;20.90;39.60;;;;;;10377807;28;20218;-14
2021/04/29 02:11:55;;;;;;;1.73;1.63;;;20.90;39.50;;;;;;10378040;28;20716;-17
2021/04/29 02:17:27;;;;;;;1.70;1.60;;;20.90;39.70;;;;;;10378654;28;20217;-18
2021/04/29 02:22:51;;;;;;;2.37;2.17;;;20.80;39.80;;;;;;10377723;28;20221;-17
2021/04/29 02:28:14;;;;;;;1.93;1.77;;;20.80;40.00;;;;;;10395783;23;20728;-14
2021/04/29 02:33:37;;;;;;;2.10;1.90;;;20.80;39.90;;;;;;10363200;28;20194;-13
2021/04/29 02:39:00;;;;;;;2.63;1.90;;;20.80;39.80;;;;;;10371858;28;20260;-12
2021/04/29 02:44:22;;;;;;;2.03;1.83;;;20.80;40.00;;;;;;10371436;28;20213;-13
2021/04/29 02:49:45;;;;;;;2.13;1.80;;;20.80;40.20;;;;;;10370757;28;20276;-13
2021/04/29 02:55:08;;;;;;;2.37;2.17;;;20.90;40.00;;;;;;10371542;28;20198;-12
2021/04/29 03:00:30;;;;;;;2.00;1.73;;;20.80;40.00;;;;;;10371508;28;20221;-16
2021/04/29 03:05:52;;;;;;;2.07;1.83;;;20.80;40.00;;;;;;10369818;28;20358;-15
2021/04/29 03:11:14;;;;;;;2.57;1.77;;;20.80;40.10;;;;;;10371892;28;20195;-16
2021/04/29 03:16:36;;;;;;;2.40;1.83;;;20.80;40.30;;;;;;10370057;28;20225;-16
2021/04/29 03:21:58;;;;;;;2.90;2.00;;;20.80;40.30;;;;;;10359049;28;20249;-16
2021/04/29 03:27:20;;;;;;;2.83;2.10;;;20.70;40.30;;;;;;10370614;28;20226;-13
2021/04/29 03:32:41;;;;;;;2.33;2.03;;;20.90;40.30;;;;;;10365477;28;20198;-13
2021/04/29 03:38:04;;;;;;;2.50;2.27;;;20.80;40.50;;;;;;10332421;28;20214;-14
2021/04/29 03:43:26;;;;;;;1.83;1.67;;;20.80;40.40;;;;;;10328013;28;20222;-16
2021/04/29 03:48:47;;;;;;;2.73;1.90;;;20.90;40.30;;;;;;10328830;28;20226;-13
2021/04/29 03:54:11;;;;;;;2.00;1.80;;;20.90;40.30;;;;;;10328792;28;20226;-15
2021/04/29 03:59:33;;;;;;;2.43;2.07;;;20.80;40.50;;;;;;10328242;28;20594;-17
2021/04/29 04:04:54;;;;;;;2.63;2.17;;;20.80;40.40;;;;;;10328352;28;20199;-12
2021/04/29 04:10:17;;;;;;;2.80;2.13;;;20.80;40.50;;;;;;10330438;28;20199;-12
2021/04/29 04:15:38;;;;;;;2.17;1.97;;;20.90;40.30;;;;;;10329505;28;20211;-15
2021/04/29 04:21:00;;;;;;;2.10;1.90;;;20.90;40.50;;;;;;10355250;28;20233;-13
2021/04/29 04:26:22;;;;;;;2.07;1.80;;;20.80;40.60;;;;;;10369398;28;20230;-15
2021/04/29 04:31:44;;;;;;;3.00;2.10;;;20.80;40.70;;;;;;10375247;28;20575;-15
2021/04/29 04:37:06;;;;;;;1.97;1.77;;;20.80;40.80;;;;;;10374375;28;20218;-15
2021/04/29 04:42:28;;;;;;;2.87;2.07;;;20.80;40.80;;;;;;10373336;28;20225;-14
2021/04/29 04:47:50;;;;;;;2.10;1.90;;;20.80;40.70;;;;;;10372697;28;20218;-16
2021/04/29 04:53:11;;;;;;;2.20;2.00;;;20.80;40.70;;;;;;10372318;28;20194;-15
2021/04/29 04:58:34;;;;;;;2.17;1.97;;;20.80;40.90;;;;;;10374607;28;20760;-12
2021/04/29 05:03:56;;;;;;;2.23;2.00;;;20.80;40.90;;;;;;10373951;28;20274;-17
2021/04/29 05:09:19;;;;;;;2.07;1.80;;;20.90;41.00;;;;;;10375048;28;20229;-13
2021/04/29 05:14:41;;;;;;;4.37;2.40;;;20.80;41.00;;;;;;10375520;28;20194;-13
2021/04/29 05:20:04;;;;;;;2.10;1.87;;;20.90;40.90;;;;;;10385623;28;20615;-16
2021/04/29 05:25:26;;;;;;;2.13;1.83;;;20.80;41.00;;;;;;10382256;28;20214;-15
2021/04/29 05:30:48;;;;;;;3.30;2.00;;;20.80;41.00;;;;;;10369197;28;20269;-13
2021/04/29 05:36:10;;;;;;;2.23;1.87;;;20.80;41.10;;;;;;10363130;28;20226;-17
2021/04/29 05:41:31;;;;;;;2.73;1.97;;;20.90;41.00;;;;;;10374342;28;20222;-17
2021/04/29 05:46:54;;;;;;;2.23;2.00;;;20.80;41.00;;;;;;10374867;28;20270;-15
2021/04/29 05:52:15;;;;;;;7.77;4.10;;;20.90;41.10;;;;;;10371481;28;20191;-15
2021/04/29 05:57:37;;;;;;;5.80;4.88;;;20.70;42.70;;;;;;10362068;28;20877;-16
2021/04/29 06:03:00;;;;;;;5.67;4.67;;;21.10;42.40;;;;;;10368367;28;20698;-12
2021/04/29 06:08:21;;;;;;;6.37;4.73;;;20.60;43.90;;;;;;10370384;28;20603;-14
2021/04/29 06:13:44;;;;;;;10.73;5.07;;;20.40;44.50;;;;;;10369626;28;20784;-12
2021/04/29 06:19:07;;;;;;;6.93;5.60;;;20.30;45.10;;;;;;10369894;28;20742;-16
2021/04/29 06:24:28;;;;;;;7.10;5.37;;;20.10;45.60;;;;;;10371647;28;20665;-15
2021/04/29 06:29:50;;;;;;;7.77;5.83;;;19.80;46.10;;;;;;10370616;28;20292;-13
2021/04/29 06:35:12;;;;;;;8.20;5.30;;;19.70;46.50;;;;;;10369625;28;20201;-11
2021/04/29 06:40:34;;;;;;;7.13;5.63;;;19.70;46.70;;;;;;10365360;28;20214;-14
2021/04/29 06:45:56;;;;;;;9.43;5.67;;;19.60;46.90;;;;;;10370074;28;20290;-15
2021/04/29 06:51:18;;;;;;;7.20;5.90;;;19.60;47.20;;;;;;10369427;28;20566;-16
2021/04/29 06:56:40;;;;;;;7.80;5.77;;;19.40;47.70;;;;;;10370905;28;20605;-13
2021/04/29 07:02:02;;;;;;;6.47;5.30;;;19.40;47.90;;;;;;10369214;28;20585;-13
2021/04/29 07:07:25;;;;;;;9.07;6.60;;;19.50;48.10;;;;;;10345380;28;20226;-13
2021/04/29 07:12:46;;;;;;;7.67;5.93;;;19.30;48.40;;;;;;10366631;28;20682;-14
2021/04/29 07:18:10;;;;;;;5.57;3.90;;;19.00;49.10;;;;;;10367483;28;20221;-14
2021/04/29 07:23:32;;;;;;;4.53;3.53;;;19.60;47.00;;;;;;10366349;28;20281;-15
2021/04/29 07:28:54;;;;;;;5.07;3.60;;;20.20;45.20;;;;;;10355676;28;20237;-15
2021/04/29 07:34:15;;;;;;;6.57;3.33;;;20.60;44.00;;;;;;10341781;28;20203;-15
2021/04/29 07:39:38;;;;;;;6.13;2.60;;;20.80;43.50;;;;;;10360539;28;20312;-15
2021/04/29 07:44:59;;;;;;;3.77;2.77;;;21.20;42.70;;;;;;10363494;28;20201;-15
2021/04/29 07:50:21;;;;;;;4.00;2.77;;;21.70;41.50;;;;;;10363110;28;20561;-15
2021/04/29 07:55:44;;;;;;;2.90;2.40;;;22.10;41.00;;;;;;10364567;28;20246;-12
2021/04/29 08:01:05;;;;;;;2.87;2.57;;;22.40;40.30;;;;;;10363418;28;20210;-14
2021/04/29 08:06:27;;;;;;;3.90;2.50;;;22.60;40.00;;;;;;10364231;28;20214;-14
2021/04/29 08:11:50;;;;;;;3.37;2.33;;;22.80;39.60;;;;;;10362054;28;20229;-13
2021/04/29 08:17:11;;;;;;;3.83;2.63;;;22.90;39.40;;;;;;10362605;28;20731;-15
2021/04/29 08:22:33;;;;;;;3.30;2.63;;;22.80;39.30;;;;;;10365027;28;20218;-13
2021/04/29 08:27:55;;;;;;;3.40;2.60;;;23.00;39.30;;;;;;10367613;28;20241;-16
2021/04/29 08:33:17;;;;;;;3.10;2.50;;;23.00;39.30;;;;;;10364177;28;20199;-16
2021/04/29 08:38:39;;;;;;;4.17;2.60;;;23.10;39.20;;;;;;10360825;28;20597;-14
2021/04/29 08:44:01;;;;;;;4.60;3.23;;;23.20;39.30;;;;;;10284897;28;20242;-14
2021/04/29 08:49:23;;;;;;;4.27;2.70;;;22.90;39.70;;;;;;10280930;28;20207;-13
2021/04/29 08:54:47;;;;;;;3.00;2.70;;;22.40;40.80;;;;;;10281443;28;20208;-13
2021/04/29 09:00:11;;;;;;;6.40;2.70;;;22.10;41.50;;;;;;10280828;28;20218;-14
2021/04/29 09:05:33;;;;;;;3.13;2.80;;;22.00;42.00;;;;;;10278200;28;20631;-14
2021/04/29 09:11:06;;;;;;;3.20;2.57;;;21.90;42.10;;;;;;10287774;28;20686;-14
2021/04/29 09:16:39;;;;;;;4.57;2.83;;;21.80;42.40;;;;;;10288506;28;20695;-15
2021/04/29 09:22:00;;;;;;;3.10;2.80;;;21.80;42.30;;;;;;10289153;28;20727;-13
2021/04/29 09:27:24;;;;;;;3.40;2.70;;;21.80;42.00;;;;;;10287660;28;20254;-14
2021/04/29 09:32:46;;;;;;;3.83;2.73;;;21.90;42.10;;;;;;10285782;28;20295;-16
2021/04/29 09:38:10;;;;;;;3.33;2.77;;;21.80;42.10;;;;;;10287703;28;20286;-15
2021/04/29 09:43:32;;;;;;;4.33;2.70;;;21.90;42.20;;;;;;10281717;28;20216;-13
2021/04/29 09:48:55;;;;;;;6.27;3.20;;;21.80;42.10;;;;;;10284808;28;20220;-13
2021/04/29 09:54:24;;;;;;;2.87;2.57;;;21.80;42.10;;;;;;10290367;28;20208;-13
2021/04/29 09:59:48;;;;;;;2.97;2.57;;;21.70;42.60;;;;;;10285592;28;20813;-15
2021/04/29 10:05:11;;;;;;;4.10;2.50;;;21.50;42.90;;;;;;10286661;28;20203;-15
2021/04/29 10:10:35;;;;;;;3.97;2.63;;;21.40;43.10;;;;;;10286693;28;20192;-13
2021/04/29 10:15:57;;;;;;;2.43;2.17;;;21.60;43.10;;;;;;10286983;28;20602;-13
2021/04/29 10:21:20;;;;;;;3.70;2.63;;;21.60;43.00;;;;;;10287311;28;20223;-14
2021/04/29 10:26:41;;;;;;;3.30;2.50;;;21.60;42.90;;;;;;10287185;28;20239;-14
2021/04/29 10:32:08;;;;;;;2.60;2.40;;;21.50;42.90;;;;;;10285939;28;20200;-15
2021/04/29 10:37:31;;;;;;;2.43;2.23;;;21.70;42.80;;;;;;10249920;28;20595;-13
2021/04/29 10:42:52;;;;;;;2.30;2.10;;;21.70;42.80;;;;;;10277461;28;20227;-16
2021/04/29 10:48:14;;;;;;;5.20;2.77;;;21.60;42.90;;;;;;10284320;28;20230;-14
2021/04/29 10:53:39;;;;;;;4.60;2.67;;;21.50;43.10;;;;;;10285088;28;20612;-14
2021/04/29 10:59:08;;;;;;;4.23;2.87;;;21.50;43.20;;;;;;10285071;28;20228;-14
2021/04/29 11:04:39;;;;;;;5.07;3.50;;;21.50;43.10;;;;;;10285025;28;20228;-12
2021/04/29 11:10:06;;;;;;;6.97;3.73;;;21.50;43.40;;;;;;10286630;28;20219;-15
2021/04/29 11:15:30;;;;;;;7.50;3.83;;;21.30;44.20;;;;;;10283631;28;20758;-14
2021/04/29 11:20:53;;;;;;;8.53;4.33;;;21.20;44.20;;;;;;10283956;28;20651;-15
2021/04/29 11:26:17;;;;;;;9.50;4.50;;;21.20;44.50;;;;;;10274884;28;20227;-14
2021/04/29 11:31:39;;;;;;;8.67;4.70;;;21.10;44.40;;;;;;10283655;28;20219;-16
2021/04/29 11:37:00;;;;;;;9.10;4.50;;;21.10;44.60;;;;;;10325083;23;20234;-18
2021/04/29 11:42:27;;;;;;;9.67;4.43;;;21.10;44.20;;;;;;10335128;28;20873;-14
2021/04/29 11:48:00;;;;;;;7.80;4.80;;;21.20;44.50;;;;;;10338802;28;20266;-17
2021/04/29 11:53:26;;;;;;;7.97;4.50;;;21.20;44.40;;;;;;10338581;28;20198;-17
2021/04/29 11:59:02;;;;;;;7.87;4.37;;;21.20;44.70;;;;;;10337796;28;20649;-19
2021/04/29 12:04:25;;;;;;;7.77;4.20;;;21.20;44.80;;;;;;10335382;28;20305;-17
2021/04/29 12:09:52;;;;;;;6.27;4.20;;;21.20;44.70;;;;;;10335684;28;20195;-17
2021/04/29 12:15:15;;;;;;;8.63;4.60;;;21.20;44.70;;;;;;10334945;28;20261;-17
2021/04/29 12:20:37;;;;;;;7.40;4.47;;;21.20;44.60;;;;;;10334176;28;20234;-15
2021/04/29 12:26:00;;;;;;;8.80;3.90;;;21.10;44.90;;;;;;10335759;28;20223;-17
2021/04/29 12:31:23;;;;;;;6.90;4.00;;;21.20;45.10;;;;;;10333153;28;20213;-18
2021/04/29 12:36:50;;;;;;;6.70;4.17;;;21.10;45.10;;;;;;10333953;28;20265;-17
2021/04/29 12:42:15;;;;;;;5.10;3.37;;;21.10;44.90;;;;;;10340650;28;20219;-16
2021/04/29 12:47:37;;;;;;;6.00;3.80;;;21.20;44.90;;;;;;10333686;28;20219;-14
2021/04/29 12:52:59;;;;;;;6.97;3.83;;;21.10;44.80;;;;;;10338287;28;20651;-17
2021/04/29 12:58:26;;;;;;;9.77;3.97;;;21.20;44.80;;;;;;10337837;28;20219;-18
2021/04/29 13:03:49;;;;;;;9.67;3.80;;;21.20;45.10;;;;;;10306621;28;20254;-18
2021/04/29 13:09:11;;;;;;;4.27;3.17;;;21.10;45.30;;;;;;10325080;28;20204;-18
2021/04/29 13:14:35;;;;;;;5.43;3.13;;;21.10;45.50;;;;;;10307667;28;20297;-14
2021/04/29 13:20:00;;;;;;;5.60;3.20;;;21.00;45.80;;;;;;10323935;28;20283;-13
2021/04/29 13:25:24;;;;;;;4.77;3.20;;;21.10;45.80;;;;;;10332500;28;20598;-16
2021/04/29 13:30:46;;;;;;;6.50;3.63;;;21.10;45.10;;;;;;10339461;28;20198;-16
2021/04/29 13:36:08;;;;;;;5.03;3.07;;;21.30;44.60;;;;;;10375949;28;20233;-17
2021/04/29 13:41:30;;;;;;;4.27;3.10;;;21.30;44.80;;;;;;10380998;28;20598;-18
2021/04/29 13:46:51;;;;;;;5.73;3.20;;;21.40;44.80;;;;;;10371575;28;20225;-17
2021/04/29 13:52:14;;;;;;;7.77;3.53;;;21.40;44.60;;;;;;10340683;28;20462;-15
2021/04/29 13:57:35;;;;;;;4.23;2.80;;;21.40;44.60;;;;;;10338320;28;20227;-13
2021/04/29 14:02:57;;;;;;;4.90;2.90;;;21.40;44.60;;;;;;10339754;28;20215;-15
2021/04/29 14:08:19;;;;;;;5.00;2.77;;;21.40;44.60;;;;;;10332823;28;20246;-15
2021/04/29 14:13:41;;;;;;;3.87;2.77;;;21.40;44.50;;;;;;10321841;28;20742;-15
2021/04/29 14:19:03;;;;;;;3.77;2.87;;;21.30;44.90;;;;;;10300098;28;20738;-17
2021/04/29 14:24:26;;;;;;;3.97;2.70;;;21.20;44.90;;;;;;10331713;28;20223;-14
2021/04/29 14:29:47;;;;;;;4.53;2.67;;;21.20;45.10;;;;;;10338005;28;20207;-18
2021/04/29 14:35:10;;;;;;;5.40;2.67;;;21.20;45.50;;;;;;10341931;28;20231;-17
2021/04/29 14:40:32;;;;;;;4.33;2.73;;;21.30;45.30;;;;;;10307296;28;20220;-19
2021/04/29 14:45:54;;;;;;;3.47;2.43;;;21.20;45.10;;;;;;10310387;28;20223;-15
2021/04/29 14:51:16;;;;;;;2.87;2.27;;;21.10;45.20;;;;;;10324603;28;20246;-14
2021/04/29 14:56:38;;;;;;;3.23;2.30;;;21.10;45.30;;;;;;10343106;28;20222;-18
2021/04/29 15:02:00;;;;;;;4.33;2.47;;;21.10;45.40;;;;;;10357044;28;20219;-17
2021/04/29 15:07:21;;;;;;;3.33;2.50;;;21.10;45.30;;;;;;10353367;28;20575;-14
2021/04/29 15:12:44;;;;;;;4.13;2.67;;;21.10;45.20;;;;;;10325273;28;20198;-15
2021/04/29 15:18:05;;;;;;;3.07;2.20;;;21.10;45.30;;;;;;10305219;28;20223;-18
2021/04/29 15:23:27;;;;;;;3.27;2.27;;;21.00;45.30;;;;;;10335986;28;20219;-14
2021/04/29 15:28:49;;;;;;;3.20;2.60;;;21.10;45.50;;;;;;10343965;28;20211;-14
2021/04/29 15:34:11;;;;;;;4.07;2.53;;;21.00;45.40;;;;;;10346098;28;20191;-19
2021/04/29 15:39:33;;;;;;;3.10;2.40;;;21.10;45.20;;;;;;10350104;28;20206;-17
2021/04/29 15:44:55;;;;;;;2.10;1.90;;;21.00;45.40;;;;;;10321987;28;20238;-14
2021/04/29 15:50:18;;;;;;;2.30;2.10;;;21.00;45.70;;;;;;10336430;28;20671;-14
2021/04/29 15:55:39;;;;;;;2.10;1.90;;;21.00;45.70;;;;;;10343618;28;20218;-15
2021/04/29 16:01:03;;;;;;;2.20;2.00;;;21.10;45.50;;;;;;10344108;28;20221;-18
2021/04/29 16:06:24;;;;;;;2.93;2.30;;;21.10;45.50;;;;;;10337370;28;20218;-18
2021/04/29 16:11:46;;;;;;;2.10;1.90;;;21.10;46.10;;;;;;10330838;28;20548;-17
2021/04/29 16:17:08;;;;;;;2.30;2.10;;;21.10;45.70;;;;;;10335908;28;20229;-15
2021/04/29 16:22:30;;;;;;;2.20;2.00;;;21.00;45.20;;;;;;10348385;28;20214;-17
2021/04/29 16:27:51;;;;;;;2.20;2.00;;;21.00;45.50;;;;;;10346338;28;20230;-18
2021/04/29 16:33:14;;;;;;;2.10;1.90;;;21.00;45.50;;;;;;10336713;28;20195;-17
2021/04/29 16:38:36;;;;;;;2.97;2.37;;;21.00;45.30;;;;;;10330808;28;20234;-16
2021/04/29 16:43:58;;;;;;;2.10;2.00;;;21.00;45.20;;;;;;10320546;28;20219;-16
2021/04/29 16:49:20;;;;;;;3.97;1.97;;;21.00;45.40;;;;;;10321923;28;20269;-16
2021/04/29 16:54:42;;;;;;;2.87;2.20;;;21.00;45.20;;;;;;10323150;28;20219;-14
2021/04/29 17:00:05;;;;;;;2.60;1.93;;;21.00;45.40;;;;;;10301114;28;20188;-17
2021/04/29 17:05:27;;;;;;;2.20;2.00;;;20.90;45.50;;;;;;10314489;28;20633;-18
2021/04/29 17:10:49;;;;;;;3.80;2.33;;;20.90;45.40;;;;;;10342569;28;20575;-14
2021/04/29 17:16:11;;;;;;;2.00;1.80;;;20.90;45.60;;;;;;10326849;28;20218;-18
2021/04/29 17:21:33;;;;;;;2.40;2.20;;;20.90;45.30;;;;;;10341060;28;20222;-17
2021/04/29 17:26:55;;;;;;;3.30;2.20;;;21.00;45.80;;;;;;10338239;28;20235;-17
2021/04/29 17:32:16;;;;;;;2.80;2.07;;;21.00;46.90;;;;;;10342775;28;20191;-15
2021/04/29 17:37:39;;;;;;;2.50;1.97;;;21.10;46.40;;;;;;10356003;23;20241;-13
2021/04/29 17:43:01;;;;;;;2.72;2.05;;;21.10;46.70;;;;;;10330122;28;20451;-14
2021/04/29 17:48:23;;;;;;;2.67;1.97;;;21.30;46.20;;;;;;10322298;28;20246;-14
2021/04/29 17:53:46;;;;;;;2.30;2.10;;;21.10;46.30;;;;;;10307929;28;20215;-14
2021/04/29 17:59:07;;;;;;;2.80;2.37;;;21.00;46.50;;;;;;10330737;28;20594;-14
2021/04/29 18:04:29;;;;;;;2.03;1.87;;;21.00;46.50;;;;;;10327523;28;20227;-14
2021/04/29 18:09:51;;;;;;;2.30;1.97;;;21.00;46.50;;;;;;10326824;28;20277;-14
2021/04/29 18:15:15;;;;;;;3.13;1.60;;;21.00;46.60;;;;;;10325054;28;20683;-14
2021/04/29 18:20:37;;;;;;;2.07;1.80;;;21.00;47.00;;;;;;10326682;28;20344;-13
2021/04/29 18:26:00;;;;;;;2.40;1.80;;;20.90;46.80;;;;;;10323738;28;20223;-14
2021/04/29 18:31:21;;;;;;;2.53;1.90;;;20.90;46.90;;;;;;10325027;28;20626;-14
2021/04/29 18:36:43;;;;;;;2.63;2.27;;;21.00;47.00;;;;;;10322543;28;20223;-14
2021/04/29 18:42:06;;;;;;;4.93;2.73;;;20.90;47.60;;;;;;10348494;28;20939;-14
2021/04/29 18:47:28;;;;;;;3.93;2.60;;;21.10;46.70;;;;;;10363864;28;20263;-14
2021/04/29 18:52:49;;;;;;;3.73;2.40;;;21.10;46.60;;;;;;10370189;28;20206;-15
2021/04/29 18:58:12;;;;;;;3.00;2.57;;;21.20;46.30;;;;;;10338188;28;20233;-15
2021/04/29 19:03:34;;;;;;;3.60;2.83;;;21.30;46.20;;;;;;10328759;28;20222;-12
2021/04/29 19:08:57;;;;;;;3.20;2.50;;;21.20;46.20;;;;;;10309408;28;20227;-14
2021/04/29 19:14:20;;;;;;;4.10;2.87;;;21.20;46.60;;;;;;10290536;28;20622;-14
2021/04/29 19:19:42;;;;;;;2.67;2.40;;;21.20;46.00;;;;;;10288979;28;20220;-13
2021/04/29 19:25:04;;;;;;;2.83;2.37;;;21.40;45.70;;;;;;10320321;28;20191;-15
2021/04/29 19:30:27;;;;;;;3.03;2.20;;;21.60;45.50;;;;;;10327448;28;20222;-13
2021/04/29 19:35:48;;;;;;;4.13;2.43;;;21.70;45.20;;;;;;10312483;28;20250;-14
2021/04/29 19:41:10;;;;;;;2.63;2.37;;;21.60;45.40;;;;;;10352100;28;20280;-14
2021/04/29 19:46:32;;;;;;;2.67;2.43;;;21.40;45.70;;;;;;10341467;28;20227;-14
2021/04/29 19:51:54;;;;;;;2.30;2.10;;;21.40;45.60;;;;;;10327271;28;20190;-15
2021/04/29 19:57:16;;;;;;;3.47;2.23;;;21.50;45.60;;;;;;10332279;28;20225;-13
2021/04/29 20:02:39;;;;;;;2.33;1.93;;;21.60;45.40;;;;;;10343850;28;20721;-15
2021/04/29 20:08:01;;;;;;;5.50;2.37;;;21.60;45.30;;;;;;10357701;28;20222;-14
2021/04/29 20:13:22;;;;;;;3.83;2.10;;;21.70;45.30;;;;;;10305611;28;20246;-13
2021/04/29 20:18:45;;;;;;;9.43;2.07;;;21.70;45.20;;;;;;10367350;28;20210;-13
2021/04/29 20:24:07;;;;;;;2.60;2.10;;;21.60;45.30;;;;;;10338800;28;20215;-14
2021/04/29 20:29:29;;;;;;;2.40;1.60;;;21.70;45.30;;;;;;10286431;28;20216;-14
2021/04/29 20:34:52;;;;;;;2.70;2.00;;;21.70;45.10;;;;;;10296854;28;20200;-15
2021/04/29 20:40:13;;;;;;;2.33;2.07;;;21.70;45.10;;;;;;10288770;28;20230;-14
2021/04/29 20:45:35;;;;;;;2.33;1.70;;;21.70;45.10;;;;;;10332392;28;20566;-14
2021/04/29 20:50:57;;;;;;;2.40;1.83;;;21.70;45.10;;;;;;10326299;28;20270;-13
2021/04/29 20:56:19;;;;;;;2.73;1.90;;;21.50;45.60;;;;;;10326818;28;20215;-13
2021/04/29 21:01:41;;;;;;;2.10;1.77;;;21.30;46.20;;;;;;10330574;28;20251;-13
2021/04/29 21:07:03;;;;;;;1.83;1.63;;;21.20;46.40;;;;;;10366806;28;20257;-14
2021/04/29 21:12:25;;;;;;;1.90;1.70;;;21.20;46.60;;;;;;10334036;28;20219;-15
2021/04/29 21:17:46;;;;;;;2.30;1.57;;;21.10;46.40;;;;;;10333619;28;20638;-13
2021/04/29 21:23:09;;;;;;;2.47;1.80;;;21.10;46.10;;;;;;10362657;28;20636;-14
2021/04/29 21:28:31;;;;;;;1.83;1.50;;;21.20;46.70;;;;;;10335649;28;20230;-13
2021/04/29 21:33:53;;;;;;;1.97;1.60;;;21.20;46.10;;;;;;10339651;28;20270;-14
2021/04/29 21:39:16;;;;;;;1.67;1.57;;;21.20;46.00;;;;;;10332021;28;20233;-12
2021/04/29 21:44:37;;;;;;;1.50;1.40;;;21.30;45.50;;;;;;10333861;28;20227;-14
2021/04/29 21:49:59;;;;;;;1.90;1.43;;;21.30;45.80;;;;;;10326503;28;20310;-13
2021/04/29 21:55:22;;;;;;;1.67;1.37;;;21.30;45.70;;;;;;10350671;28;20195;-14
2021/04/29 22:00:48;;;;;;;1.87;1.70;;;21.20;46.10;;;;;;10334803;28;20222;-13
2021/04/29 22:06:11;;;;;;;1.73;1.33;;;21.20;45.70;;;;;;10324987;28;20290;-14
2021/04/29 22:11:34;;;;;;;2.93;1.50;;;21.10;45.70;;;;;;10304652;28;20281;-14
2021/04/29 22:16:56;;;;;;;1.90;1.43;;;21.10;46.00;;;;;;10332167;28;20219;-14
2021/04/29 22:22:17;;;;;;;1.30;1.20;;;21.00;45.90;;;;;;10330813;28;20757;-14
2021/04/29 22:27:40;;;;;;;2.30;1.10;;;20.90;46.10;;;;;;10331037;28;20222;-14
2021/04/29 22:33:03;;;;;;;1.43;1.30;;;20.90;45.90;;;;;;10331067;28;20206;-15
2021/04/29 22:38:24;;;;;;;1.67;1.20;;;20.90;46.20;;;;;;10330979;28;20226;-14
2021/04/29 22:43:47;;;;;;;1.30;1.20;;;20.90;46.10;;;;;;10330211;28;20219;-15
2021/04/29 22:49:09;;;;;;;1.40;1.30;;;20.90;46.10;;;;;;10330171;28;20687;-15
2021/04/29 22:54:31;;;;;;;1.37;1.27;;;20.90;46.00;;;;;;10331202;28;20198;-15
2021/04/29 22:59:53;;;;;;;1.80;1.30;;;20.90;46.10;;;;;;10330298;28;20289;-14
2021/04/29 23:05:16;;;;;;;1.30;1.20;;;20.80;46.10;;;;;;10329737;28;20761;-13
2021/04/29 23:10:38;;;;;;;1.30;1.20;;;20.80;46.20;;;;;;10330702;28;20206;-15
2021/04/29 23:16:00;;;;;;;1.30;1.17;;;20.80;46.20;;;;;;10330468;28;20221;-14
2021/04/29 23:21:22;;;;;;;1.30;1.17;;;20.80;46.10;;;;;;10328930;28;20634;-13
2021/04/29 23:26:43;;;;;;;1.40;1.30;;;20.80;46.10;;;;;;10330696;28;20218;-14
2021/04/29 23:32:07;;;;;;;1.60;1.50;;;20.80;46.20;;;;;;10328491;28;20202;-13
2021/04/29 23:37:28;;;;;;;1.40;1.30;;;20.80;46.10;;;;;;10344250;23;20227;-14
2021/04/29 23:42:50;;;;;;;1.67;1.53;;;20.80;46.00;;;;;;10341716;28;20245;-17
2021/04/29 23:48:12;;;;;;;1.70;1.60;;;20.80;45.90;;;;;;10341484;28;20214;-17
2021/04/29 23:53:34;;;;;;;1.70;1.57;;;20.80;46.20;;;;;;10345573;28;20195;-17
2021/04/29 23:58:56;;;;;;;2.47;1.50;;;20.70;46.00;;;;;;10346575;28;20249;-18
